Accueil
METAR-TAF:

METAR-TAF

Aéroports :

Buochs, Suisse

latitude: 46-58-28N, longitude: 8-23-49E, altitude: 449 m

Observation

Le bulletin a été fait il y a 16 minutes, à 06:20 UTC
Vent 3 kt de sud-ouest, variant entre sud/sud-ouest et ouest
Température 13°C
Humidité 77%
Pression 1019 hPa
Visibilité 10 km ou plus
Ciel couvert à une hauteur de 9000 ft

METAR: LSZC 210620Z AUTO 23003KT 210V270 9999 OVC090 13/09 Q1019

Heure: 08:36 (06:36 UTC)

Prévision

Le bulletin a été fait il y a 16 heures et 11 minutes, à 14:25 UTC
Prévision valable du 20 à 15 UTC au 20 à 24 UTC
Vent 3 kt de direction variable
Visibilité 10 km ou plus
Nuages fragmentés à une hauteur de 12000 ft
Probabilité 30%
du 20 à 21 UTC au 20 à 24 UTC
Visibilité 10 km ou plus
pas de nuages en-dessous de 1500 mètres et pas de cumulonimbus.

TAF: LSZC 201425Z 2015/2024 VRB03KT 9999 BKN120 PROB30 2021/2024 CAVOK

Observations et prévisions météorologiques de plus de 4000 aéroports (messages METAR et TAF).

Les stations disponibles sont représentées par des disques jaunes et rouges sur la carte.

Passer la souris dessus pour voir le nom de la station.

Cliquer dessus pour voir les observations et prévisions météorologiques.

Pour changer de carte: cliquez sur les boutons verts avec une croix noire pour zoomer, sur le bouton vert avec un tiret pour effectuer un zoom arrière, ou sur les flèches vertes pour les cartes adjacentes.


METAR-TAF: